V.C. Bird, Antigua

7:47 AM AST on August 27, 2016 (GMT -0400)
V C Bird International | | Change Station

Elev 46 ft 17.12 °N, 61.78 °W | Updated 47 minutes ago

Partly Cloudy
Partly Cloudy
79 °F
Feels Like 79 °F
N
2
Wind Variable Wind from Variable

Today
High -- | Low -- °F
--% Chance of Precip.
Yesterday
High -- | Low -- °F
Precip. -- in
Pressure 29.95 in
Visibility 6.2 miles
Clouds Few 1800 ft
Dew Point 73 °F
Humidity 83%
Rainfall 0.00 in
Snow Depth Not available.
5:52 AM 6:23 PM
Waning Crescent, 25% visible
METAR TAPA 271100Z VRB02KT 9999 FEW018 26/23 Q1014 NOSIG
Pressure 29.95 in
Visibility 6.2 miles
Clouds Few 1800 ft
Dew Point 73 °F
Humidity 83%
Rainfall 0.00 in
Snow Depth Not available.
5:52 AM 6:23 PM
Waning Crescent, 25% visible
METAR TAPA 271100Z VRB02KT 9999 FEW018 26/23 Q1014 NOSIG

10-Day Weather Forecast

No radar image for this location.
×

Almanac

Astronomy

Aug. 27, 2016 Rise Set
Actual Time
Civil Twilight
Nautical Twilight
Astronomical Twilight
Moon
Length of Visible Light
Length of Day
Tomorrow will be .
, % of the Moon is Illuminated

Today's Extremes

Country Highs Country Lows

Community

WunderPhotos

Upload Photos

1,935,325 photos uploaded!

WunderBlog® & News

Nearby

Air Quality

  Air Quality AQ Index Pollutant
Not available.

Snow Depth

Station Depth Elevation

Earthquake Activity

City Distance Mag. Time & Date
Minimum magnitude displayed is 2.5.

Coastal Water Temperatures

Place Temperature

Stations

Nearby Weather Stations

Station Location Temp. Windchill Dew Point Humidity Wind Precip. Elev Updated Type